createdAt,value
2023-03-04T00:02:27.284Z,71.7
2023-03-04T00:12:27.228Z,71.6
2023-03-04T00:22:27.277Z,70.7
2023-03-04T00:27:27.224Z,71.4
2023-03-04T00:32:27.302Z,71.5
2023-03-04T00:52:27.260Z,71.7
2023-03-04T01:02:27.321Z,72.9
2023-03-04T01:07:27.267Z,74.6
2023-03-04T01:17:27.231Z,72.5
2023-03-04T01:22:28.745Z,72.5
2023-03-04T01:27:27.264Z,72.5
2023-03-04T01:32:27.321Z,72.6
2023-03-04T01:42:27.280Z,73.5
2023-03-04T01:47:27.243Z,74.3
2023-03-04T01:52:27.280Z,73.9
2023-03-04T02:02:27.311Z,74.3
2023-03-04T02:07:27.299Z,75.1
2023-03-04T02:37:27.267Z,74.1
2023-03-04T02:42:27.304Z,74.9
2023-03-04T02:47:27.265Z,75.2
2023-03-04T02:52:27.310Z,74.4
2023-03-04T02:57:27.280Z,74.2
2023-03-04T03:02:27.348Z,73.2
2023-03-04T03:07:27.309Z,73.1
2023-03-04T03:22:27.299Z,74.0
2023-03-04T03:32:27.314Z,73.5
2023-03-04T03:37:27.286Z,72.8
2023-03-04T03:42:27.322Z,73.3
2023-03-04T03:47:27.284Z,72.9
2023-03-04T03:57:27.282Z,73.8
2023-03-04T04:02:27.444Z,73.9
2023-03-04T04:07:27.479Z,74.7
2023-03-04T04:12:27.484Z,72.7
2023-03-04T04:17:27.318Z,72.7
2023-03-04T04:27:27.286Z,74.9
2023-03-04T04:32:27.404Z,74.2
2023-03-04T04:42:27.307Z,73.5
2023-03-04T04:47:27.316Z,73.6
2023-03-04T04:52:27.341Z,74.2
2023-03-04T04:57:27.296Z,73.4
2023-03-04T05:02:27.296Z,73.3
2023-03-04T05:12:27.292Z,74.1
2023-03-04T05:17:27.308Z,76.3
2023-03-04T05:22:27.328Z,77.6
2023-03-04T05:27:27.310Z,78.9
2023-03-04T05:32:27.338Z,80.1
2023-03-04T05:37:27.329Z,79.9
2023-03-04T05:52:27.351Z,78.6
2023-03-04T05:57:27.312Z,78.4
2023-03-04T06:07:27.356Z,78.6
2023-03-04T06:12:27.314Z,79.2
2023-03-04T06:17:27.307Z,79.5
2023-03-04T06:27:27.348Z,78.4
2023-03-04T06:37:27.356Z,78.0
2023-03-04T06:42:27.373Z,78.5
2023-03-04T06:52:27.572Z,78.4
2023-03-04T06:57:27.352Z,79.0
2023-03-04T07:02:27.341Z,79.3
2023-03-04T07:07:27.342Z,79.2
2023-03-04T07:12:27.326Z,78.7
2023-03-04T07:17:27.376Z,79.6
2023-03-04T07:22:27.350Z,78.8
2023-03-04T07:37:27.400Z,79.4
2023-03-04T07:42:27.342Z,79.6
2023-03-04T07:47:27.342Z,78.5
2023-03-04T07:52:27.377Z,79.7
2023-03-04T07:57:27.348Z,79.7
2023-03-04T08:02:27.420Z,79.2
2023-03-04T08:12:27.377Z,77.5
2023-03-04T08:17:27.372Z,77.2
2023-03-04T08:22:27.346Z,77.3
2023-03-04T08:27:27.375Z,76.8
2023-03-04T08:32:27.535Z,76.0
2023-03-04T08:37:27.338Z,77.7
2023-03-04T08:42:27.359Z,80.2
2023-03-04T08:47:27.379Z,80.7
2023-03-04T08:52:27.411Z,80.4
2023-03-04T08:57:27.392Z,80.1
2023-03-04T09:02:27.339Z,77.3
2023-03-04T09:07:27.351Z,79.6
2023-03-04T09:12:27.392Z,79.6
2023-03-04T09:17:27.377Z,80.9
2023-03-04T09:22:27.378Z,83.0
2023-03-04T09:27:27.376Z,83.1
2023-03-04T09:32:27.400Z,86.1
2023-03-04T09:37:27.384Z,87.6
2023-03-04T09:42:27.396Z,86.8
2023-03-04T09:47:27.402Z,85.4
2023-03-04T09:52:27.409Z,83.6
2023-03-04T09:57:27.369Z,85.4
2023-03-04T10:02:27.385Z,85.5
2023-03-04T10:07:27.410Z,82.4
2023-03-04T10:12:27.362Z,78.9
2023-03-04T10:17:27.371Z,80.0
2023-03-04T10:22:27.390Z,77.9
2023-03-04T10:27:27.394Z,76.0
2023-03-04T10:32:27.436Z,74.9
2023-03-04T10:37:27.377Z,74.6
2023-03-04T10:42:27.545Z,76.8
2023-03-04T10:52:27.398Z,84.6
2023-03-04T10:57:27.361Z,86.2
2023-03-04T11:02:27.384Z,83.7
2023-03-04T11:07:27.402Z,84.2
2023-03-04T11:12:27.362Z,87.8
2023-03-04T11:17:27.371Z,89.1
2023-03-04T11:22:27.395Z,89.7
2023-03-04T11:27:27.356Z,90.0
2023-03-04T11:32:28.752Z,86.6
2023-03-04T11:37:27.394Z,86.6
2023-03-04T11:42:27.405Z,85.2
2023-03-04T11:47:27.408Z,81.3
2023-03-04T11:52:27.433Z,76.8
2023-03-04T11:57:28.753Z,77.2
2023-03-04T12:02:27.439Z,77.2
2023-03-04T12:07:27.429Z,79.7
2023-03-04T12:22:27.449Z,83.4
2023-03-04T12:27:27.402Z,82.8
2023-03-04T12:32:27.444Z,79.1
2023-03-04T12:37:27.430Z,77.1
2023-03-04T12:42:27.402Z,75.6
2023-03-04T12:47:27.413Z,77.4
2023-03-04T12:52:27.432Z,78.5
2023-03-04T12:57:27.410Z,81.0
2023-03-04T13:07:27.443Z,80.0
2023-03-04T13:12:27.426Z,78.4
2023-03-04T13:17:27.456Z,76.4
2023-03-04T13:27:27.438Z,73.8
2023-03-04T13:32:27.481Z,73.2
2023-03-04T13:37:27.454Z,73.0
2023-03-04T13:52:27.438Z,74.3
2023-03-04T13:57:27.437Z,71.3
2023-03-04T14:02:27.465Z,69.7
2023-03-04T14:07:27.455Z,68.7
2023-03-04T14:17:27.470Z,65.1
2023-03-04T14:22:27.445Z,66.3
2023-03-04T14:27:27.445Z,65.4
2023-03-04T14:32:27.507Z,64.9
2023-03-04T14:52:27.466Z,66.6
2023-03-04T14:57:27.451Z,63.7
2023-03-04T15:02:27.480Z,65.5
2023-03-04T15:07:27.490Z,66.0
2023-03-04T15:12:27.447Z,64.6
2023-03-04T15:17:27.476Z,62.3
2023-03-04T15:22:27.490Z,62.7
2023-03-04T15:27:27.439Z,61.8
2023-03-04T15:32:27.458Z,62.8
2023-03-04T15:37:27.478Z,62.4
2023-03-04T15:42:27.448Z,62.7
2023-03-04T15:47:27.464Z,63.9
2023-03-04T15:52:27.481Z,63.3
2023-03-04T15:57:27.458Z,65.3
2023-03-04T16:02:27.495Z,67.2
2023-03-04T16:07:27.482Z,69.0
2023-03-04T16:12:27.509Z,68.3
2023-03-04T16:17:27.507Z,67.0
2023-03-04T16:22:27.503Z,70.0
2023-03-04T16:27:27.509Z,70.3
2023-03-04T16:32:27.614Z,69.9
2023-03-04T16:37:27.476Z,68.9
2023-03-04T16:42:27.496Z,67.3
2023-03-04T16:47:27.483Z,66.4
2023-03-04T16:57:27.489Z,66.4
2023-03-04T17:02:27.550Z,67.6
2023-03-04T17:07:27.498Z,68.5
2023-03-04T17:12:27.493Z,67.6
2023-03-04T17:22:27.471Z,69.4
2023-03-04T17:27:27.514Z,69.1
2023-03-04T17:32:27.570Z,69.4
2023-03-04T17:37:27.524Z,70.9
2023-03-04T17:42:27.517Z,70.9
2023-03-04T17:47:27.492Z,72.8
2023-03-04T17:52:27.505Z,72.4
2023-03-04T17:57:27.504Z,75.3
2023-03-04T18:02:27.627Z,76.5
2023-03-04T18:07:27.510Z,75.9
2023-03-04T18:17:27.526Z,74.9
2023-03-04T18:22:27.514Z,74.5
2023-03-04T18:32:28.386Z,80.0
2023-03-04T18:37:27.533Z,81.8
2023-03-04T18:42:27.522Z,81.0
2023-03-04T18:47:27.526Z,79.7
2023-03-04T18:52:27.526Z,78.4
2023-03-04T18:57:27.525Z,80.0
2023-03-04T19:02:27.507Z,79.6
2023-03-04T19:12:27.518Z,78.7
2023-03-04T19:22:27.548Z,76.6
2023-03-04T19:32:27.574Z,77.0
2023-03-04T19:37:27.540Z,77.5
2023-03-04T19:42:27.517Z,75.3
2023-03-04T19:47:27.545Z,78.5
2023-03-04T19:52:27.535Z,80.8
2023-03-04T20:02:27.556Z,81.2
2023-03-04T20:12:27.537Z,81.4
2023-03-04T20:17:27.584Z,80.9
2023-03-04T20:22:27.563Z,81.2
2023-03-04T20:27:27.567Z,81.2
2023-03-04T20:32:27.592Z,81.4
2023-03-04T20:37:27.519Z,81.4
2023-03-04T20:42:27.561Z,81.6
2023-03-04T20:52:27.544Z,82.1
2023-03-04T20:57:27.561Z,81.3
2023-03-04T21:02:27.522Z,82.0
2023-03-04T21:12:27.565Z,81.5
2023-03-04T21:17:27.586Z,80.7
2023-03-04T21:27:27.558Z,80.6
2023-03-04T21:37:27.575Z,80.9
2023-03-04T21:42:27.593Z,81.6
2023-03-04T21:52:27.571Z,82.6
2023-03-04T21:57:27.605Z,82.7
2023-03-04T22:02:27.596Z,82.9
2023-03-04T22:07:27.618Z,83.4
2023-03-04T22:17:27.668Z,82.5
2023-03-04T22:32:27.634Z,82.3
2023-03-04T22:52:27.620Z,82.4
2023-03-04T22:57:27.599Z,82.2
2023-03-04T23:12:27.628Z,82.1
2023-03-04T23:17:27.610Z,81.8
2023-03-04T23:22:27.625Z,82.2
2023-03-04T23:27:27.615Z,81.7
2023-03-04T23:32:27.689Z,81.2
2023-03-04T23:37:27.634Z,81.6
2023-03-04T23:42:27.604Z,82.2
2023-03-04T23:52:27.648Z,81.0
2023-03-04T23:57:27.634Z,82.4
